Time;durP1;ratioP1;P1;durP2;ratioP2;P2;SDS_P1;SDS_P2;PMS_P1;PMS_P2;Temp;Humidity;BMP_temperature;BMP_pressure;BME280_temperature;BME280_humidity;BME280_pressure;Samples;Min_cycle;Max_cycle;Signal;HPM_P1;HPM_P2
2021/12/15 00:01:03;;;;;;;114.90;25.00;;;7.10;99.90;;;;;;5115408;28;20221;-79
2021/12/15 00:03:31;;;;;;;134.07;25.30;;;7.10;99.90;;;;;;5115782;28;20201;-77
2021/12/15 00:05:58;;;;;;;130.30;26.23;;;7.10;99.90;;;;;;5115601;28;20280;-80
2021/12/15 00:08:25;;;;;;;134.20;27.43;;;7.10;99.90;;;;;;5115796;28;20684;-78
2021/12/15 00:10:53;;;;;;;127.23;26.93;;;7.10;99.90;;;;;;5115661;28;20631;-77
2021/12/15 00:13:21;;;;;;;144.80;27.63;;;7.10;99.90;;;;;;5115018;28;20567;-79
2021/12/15 00:15:50;;;;;;;130.87;28.47;;;7.10;99.90;;;;;;5115555;28;20773;-78
2021/12/15 00:18:18;;;;;;;130.50;28.03;;;7.10;99.90;;;;;;5115508;28;20210;-78
2021/12/15 00:20:46;;;;;;;148.70;29.27;;;7.00;99.90;;;;;;5115050;28;20217;-78
2021/12/15 00:23:13;;;;;;;117.43;28.87;;;7.00;99.90;;;;;;5115836;28;20198;-80
2021/12/15 00:25:43;;;;;;;112.10;28.43;;;7.00;99.90;;;;;;5114955;28;20196;-77
2021/12/15 00:28:11;;;;;;;116.80;27.30;;;7.00;99.90;;;;;;5115382;28;20196;-78
2021/12/15 00:30:39;;;;;;;116.50;30.87;;;7.00;99.90;;;;;;5115354;28;20251;-78
2021/12/15 00:33:09;;;;;;;115.90;32.10;;;7.00;99.90;;;;;;5114906;28;20717;-79
2021/12/15 00:35:37;;;;;;;109.63;28.10;;;7.00;99.90;;;;;;5115156;28;20201;-78
2021/12/15 00:38:06;;;;;;;109.03;28.73;;;6.90;99.90;;;;;;5115246;28;20193;-78
2021/12/15 00:40:34;;;;;;;119.57;29.67;;;6.90;99.90;;;;;;5115021;28;20210;-77
2021/12/15 00:43:02;;;;;;;153.77;35.53;;;7.00;99.90;;;;;;5113955;28;20218;-77
2021/12/15 00:45:29;;;;;;;132.43;30.03;;;6.90;99.90;;;;;;5115093;28;20304;-80
2021/12/15 00:47:57;;;;;;;119.97;28.63;;;6.90;99.90;;;;;;5114927;28;20200;-78
2021/12/15 00:50:29;;;;;;;105.30;25.87;;;6.90;99.90;;;;;;5114957;28;20203;-78
2021/12/15 00:52:58;;;;;;;123.57;29.60;;;6.90;99.90;;;;;;5114918;28;20313;-79
2021/12/15 00:55:27;;;;;;;117.30;29.90;;;6.90;99.90;;;;;;5113436;28;20631;-78
2021/12/15 00:57:54;;;;;;;110.00;29.87;;;6.90;99.90;;;;;;5114769;28;20202;-77
2021/12/15 01:00:28;;;;;;;111.03;28.37;;;6.90;99.90;;;;;;5114650;28;20221;-78
2021/12/15 01:02:55;;;;;;;106.07;26.73;;;6.90;99.90;;;;;;5114422;28;20175;-78
2021/12/15 01:05:26;;;;;;;95.33;24.67;;;6.90;99.90;;;;;;5114475;28;20574;-77
2021/12/15 01:07:54;;;;;;;97.70;24.97;;;6.90;99.90;;;;;;5114447;28;20200;-78
2021/12/15 01:10:33;;;;;;;87.90;26.17;;;6.90;99.90;;;;;;5114532;28;20652;-79
2021/12/15 01:21:16;;;;;;;77.80;23.27;;;6.90;99.90;;;;;;5113656;28;20204;-79
2021/12/15 01:23:43;;;;;;;80.07;23.40;;;6.90;99.90;;;;;;5114018;28;20196;-77
2021/12/15 01:26:16;;;;;;;77.10;25.13;;;7.00;99.90;;;;;;5114293;28;20267;-79
2021/12/15 01:28:43;;;;;;;105.93;27.40;;;6.90;99.90;;;;;;5113793;28;20544;-78
2021/12/15 01:31:11;;;;;;;98.77;27.07;;;6.90;99.90;;;;;;5114036;28;20189;-77
2021/12/15 01:33:40;;;;;;;104.00;29.57;;;6.90;99.90;;;;;;5114034;28;20197;-79
2021/12/15 01:36:09;;;;;;;99.30;25.23;;;6.90;99.90;;;;;;5113955;28;20192;-80
2021/12/15 01:38:38;;;;;;;98.50;24.87;;;6.90;99.90;;;;;;5114004;28;20212;-79
2021/12/15 01:41:06;;;;;;;102.30;26.97;;;6.90;99.90;;;;;;5113506;28;20571;-79
2021/12/15 01:43:49;;;;;;;100.60;28.30;;;6.80;99.90;;;;;;5113073;28;20220;-77
2021/12/15 01:49:08;;;;;;;94.77;24.57;;;6.80;99.90;;;;;;5113612;28;20314;-78
2021/12/15 01:51:35;;;;;;;99.27;25.60;;;6.80;99.90;;;;;;5113805;28;20614;-78
2021/12/15 01:54:03;;;;;;;113.47;27.33;;;6.80;99.90;;;;;;5113852;28;20649;-80
2021/12/15 01:56:30;;;;;;;94.57;27.03;;;6.80;99.90;;;;;;5113857;28;20204;-79
2021/12/15 01:58:59;;;;;;;84.67;23.73;;;6.80;99.90;;;;;;5113597;28;20222;-78
2021/12/15 02:01:27;;;;;;;105.57;25.07;;;6.80;99.90;;;;;;5113071;28;20695;-78
2021/12/15 02:03:55;;;;;;;95.33;26.83;;;6.70;99.90;;;;;;5113468;28;20193;-77
2021/12/15 02:06:23;;;;;;;109.37;28.20;;;6.70;99.90;;;;;;5113107;28;20206;-79
2021/12/15 02:08:50;;;;;;;91.77;26.83;;;6.70;99.90;;;;;;5113372;28;20293;-80
2021/12/15 02:11:17;;;;;;;109.47;27.67;;;6.70;99.90;;;;;;5113105;28;20200;-78
2021/12/15 02:13:44;;;;;;;117.40;29.20;;;6.70;99.90;;;;;;5113073;28;20248;-78
2021/12/15 02:16:13;;;;;;;110.53;27.50;;;6.80;99.90;;;;;;5113042;28;20209;-78
2021/12/15 02:18:44;;;;;;;129.27;28.70;;;6.80;99.90;;;;;;5113271;28;20194;-76
2021/12/15 02:21:16;;;;;;;110.60;26.57;;;6.80;99.90;;;;;;5113141;28;20293;-78
2021/12/15 02:23:48;;;;;;;106.00;27.23;;;6.80;99.90;;;;;;5113249;28;20181;-79
2021/12/15 02:26:19;;;;;;;116.00;29.10;;;6.70;99.90;;;;;;5113333;28;20293;-78
2021/12/15 02:28:50;;;;;;;125.43;31.93;;;6.70;99.90;;;;;;5113033;28;20192;-77
2021/12/15 02:31:33;;;;;;;100.17;28.87;;;6.80;99.90;;;;;;5113216;28;20191;-78
2021/12/15 02:34:08;;;;;;;112.53;28.23;;;6.80;99.90;;;;;;5113645;28;20510;-77
2021/12/15 02:39:22;;;;;;;134.30;26.57;;;6.80;99.90;;;;;;5092447;28;20177;-79
2021/12/15 02:41:49;;;;;;;90.43;24.17;;;6.80;99.90;;;;;;5092083;28;20224;-79
2021/12/15 02:44:20;;;;;;;95.67;23.70;;;6.80;99.90;;;;;;5092452;28;20650;-77
2021/12/15 02:46:49;;;;;;;101.00;24.10;;;6.80;99.90;;;;;;5092463;28;20653;-79
2021/12/15 02:49:20;;;;;;;138.83;26.47;;;6.80;99.90;;;;;;5092616;28;20209;-78
2021/12/15 02:51:51;;;;;;;131.73;25.57;;;6.70;99.90;;;;;;5092524;28;20194;-79
2021/12/15 02:54:20;;;;;;;87.83;24.27;;;6.70;99.90;;;;;;5094751;28;20211;-77
2021/12/15 02:56:49;;;;;;;85.27;22.83;;;6.70;99.90;;;;;;5112838;28;20201;-78
2021/12/15 02:59:20;;;;;;;94.30;24.53;;;6.70;99.90;;;;;;5112841;28;20198;-78
2021/12/15 03:02:00;;;;;;;92.33;23.20;;;6.70;99.90;;;;;;5112799;28;20223;-78
2021/12/15 03:04:38;;;;;;;98.30;23.57;;;6.70;99.90;;;;;;5112660;28;20403;-77
2021/12/15 03:07:14;;;;;;;87.67;23.50;;;6.80;99.90;;;;;;5112777;28;20288;-79
2021/12/15 03:18:10;;;;;;;83.47;24.30;;;6.80;99.90;;;;;;5114271;28;20184;-79
2021/12/15 03:20:42;;;;;;;102.97;24.63;;;6.80;99.90;;;;;;5116750;28;20537;-78
2021/12/15 03:23:12;;;;;;;94.10;22.83;;;6.80;99.90;;;;;;5117179;28;20196;-78
2021/12/15 03:25:39;;;;;;;96.57;23.97;;;6.80;99.90;;;;;;5116707;28;20207;-80
2021/12/15 03:33:53;;;;;;;150.30;26.87;;;6.80;99.90;;;;;;5116159;28;20762;-79
2021/12/15 03:36:35;;;;;;;137.77;28.17;;;6.80;99.90;;;;;;5116499;28;20284;-78
2021/12/15 03:39:04;;;;;;;131.03;28.17;;;6.70;99.90;;;;;;5116004;28;20232;-78
2021/12/15 03:41:31;;;;;;;139.87;33.47;;;6.80;99.90;;;;;;5116374;28;20220;-78
2021/12/15 03:43:59;;;;;;;133.13;27.07;;;6.80;99.90;;;;;;5116354;28;20244;-78
2021/12/15 03:46:26;;;;;;;162.83;33.30;;;6.80;99.90;;;;;;5115965;28;20208;-78
2021/12/15 03:48:53;;;;;;;123.93;26.47;;;6.80;99.90;;;;;;5116122;28;20215;-79
2021/12/15 03:51:23;;;;;;;134.30;29.33;;;6.80;99.90;;;;;;5116120;28;20200;-78
2021/12/15 03:53:50;;;;;;;119.73;27.47;;;6.80;99.90;;;;;;5115814;28;20196;-78
2021/12/15 03:56:19;;;;;;;133.23;27.53;;;6.80;99.90;;;;;;5115509;28;20193;-77
2021/12/15 03:58:47;;;;;;;144.27;32.33;;;6.80;99.90;;;;;;5115478;28;20550;-78
2021/12/15 04:01:22;;;;;;;125.63;30.90;;;6.90;99.90;;;;;;5115789;28;20248;-78
2021/12/15 04:03:52;;;;;;;135.33;29.47;;;6.80;99.90;;;;;;5115436;28;20224;-79
2021/12/15 04:06:23;;;;;;;134.27;29.13;;;6.80;99.90;;;;;;5115190;28;20189;-81
2021/12/15 04:08:50;;;;;;;145.53;29.93;;;6.80;99.90;;;;;;5112898;28;20192;-79
2021/12/15 04:11:20;;;;;;;157.60;29.80;;;6.90;99.90;;;;;;5115506;28;20197;-79
2021/12/15 04:13:48;;;;;;;143.80;33.57;;;6.80;99.90;;;;;;5115610;28;20179;-78
2021/12/15 04:16:39;;;;;;;150.03;32.10;;;6.80;99.90;;;;;;5115518;28;20672;-79
2021/12/15 04:19:07;;;;;;;146.00;29.27;;;6.80;99.90;;;;;;5114720;28;20194;-79
2021/12/15 04:21:35;;;;;;;129.33;27.47;;;6.90;99.90;;;;;;5115371;28;20217;-79
2021/12/15 04:24:02;;;;;;;143.77;31.30;;;6.90;99.90;;;;;;5115508;28;20204;-78
2021/12/15 04:26:31;;;;;;;150.47;35.03;;;6.90;99.90;;;;;;5115757;28;20208;-78
2021/12/15 04:28:58;;;;;;;146.70;30.13;;;6.90;99.90;;;;;;5115048;28;20506;-79
2021/12/15 04:31:31;;;;;;;142.63;31.37;;;6.90;99.90;;;;;;5115240;28;20197;-78
2021/12/15 04:34:03;;;;;;;128.10;29.00;;;6.90;99.90;;;;;;5115677;28;20207;-78
2021/12/15 04:36:33;;;;;;;126.90;29.20;;;6.90;99.90;;;;;;5115280;28;20198;-78
2021/12/15 04:39:02;;;;;;;131.97;29.30;;;7.00;99.90;;;;;;5115480;28;20183;-79
2021/12/15 04:41:30;;;;;;;140.53;28.00;;;7.00;99.90;;;;;;5115221;28;20221;-79
2021/12/15 04:44:00;;;;;;;150.00;30.00;;;6.90;99.90;;;;;;5115051;28;20670;-78
2021/12/15 04:46:30;;;;;;;133.43;28.53;;;7.00;99.90;;;;;;5114270;28;20193;-78
2021/12/15 04:48:57;;;;;;;122.20;27.57;;;7.00;99.90;;;;;;5114528;28;20630;-79
2021/12/15 04:51:25;;;;;;;136.30;29.70;;;7.00;99.90;;;;;;5114926;28;20204;-78
2021/12/15 04:53:52;;;;;;;126.90;26.97;;;7.00;99.90;;;;;;5114634;28;20684;-77
2021/12/15 04:56:20;;;;;;;121.00;27.37;;;7.00;99.90;;;;;;5114712;28;20251;-77
2021/12/15 04:58:49;;;;;;;123.33;27.47;;;6.90;99.90;;;;;;5114804;28;20197;-79
2021/12/15 05:01:18;;;;;;;141.93;29.07;;;6.90;99.90;;;;;;5114776;28;20216;-79
2021/12/15 05:03:45;;;;;;;121.33;29.03;;;7.00;99.90;;;;;;5114417;28;20196;-79
2021/12/15 05:06:13;;;;;;;143.93;34.37;;;6.90;99.90;;;;;;5114628;28;20211;-77
2021/12/15 05:08:42;;;;;;;154.20;36.80;;;6.90;99.90;;;;;;5113511;28;20566;-78
2021/12/15 05:11:10;;;;;;;148.43;33.57;;;7.00;99.90;;;;;;5114507;28;20196;-80
2021/12/15 05:13:38;;;;;;;149.63;32.27;;;7.00;99.90;;;;;;5114574;28;20255;-79
2021/12/15 05:16:08;;;;;;;154.70;35.63;;;7.00;99.90;;;;;;5114433;28;20642;-79
2021/12/15 05:18:35;;;;;;;170.03;33.13;;;7.00;99.90;;;;;;5114387;28;20205;-79
2021/12/15 05:21:05;;;;;;;201.13;35.30;;;7.00;99.90;;;;;;5114528;28;20593;-78
2021/12/15 05:23:32;;;;;;;233.40;35.57;;;7.00;99.90;;;;;;5114128;28;20215;-80
2021/12/15 05:26:01;;;;;;;233.27;35.47;;;7.00;99.90;;;;;;5114302;28;20198;-78
2021/12/15 05:28:28;;;;;;;323.63;41.20;;;7.00;99.90;;;;;;5114486;28;20228;-79
2021/12/15 05:30:58;;;;;;;335.33;38.10;;;7.00;99.90;;;;;;5114098;28;20205;-78
2021/12/15 05:33:26;;;;;;;358.93;41.63;;;7.00;99.90;;;;;;5114133;28;20201;-78
2021/12/15 05:35:56;;;;;;;402.57;40.97;;;7.00;99.90;;;;;;5113894;28;20209;-79
2021/12/15 05:38:24;;;;;;;399.50;45.27;;;7.00;99.90;;;;;;5113735;28;20596;-78
2021/12/15 05:40:52;;;;;;;363.83;43.13;;;7.00;99.90;;;;;;5113288;28;20193;-78
2021/12/15 05:43:19;;;;;;;441.30;53.47;;;7.00;99.90;;;;;;5113812;28;20306;-78
2021/12/15 05:45:48;;;;;;;458.17;44.37;;;7.00;99.90;;;;;;5113613;28;20196;-79
2021/12/15 05:48:15;;;;;;;405.87;43.00;;;7.00;99.90;;;;;;5113637;28;20208;-78
2021/12/15 05:50:46;;;;;;;478.77;50.43;;;7.00;99.90;;;;;;5113786;28;20200;-79
2021/12/15 05:53:13;;;;;;;498.17;46.33;;;7.00;99.90;;;;;;5113880;28;20182;-79
2021/12/15 05:55:42;;;;;;;497.07;46.77;;;7.00;99.90;;;;;;5113617;28;20193;-79
2021/12/15 05:58:09;;;;;;;460.37;47.93;;;7.00;99.90;;;;;;5113706;28;20209;-79
2021/12/15 06:00:39;;;;;;;463.43;49.67;;;7.00;99.90;;;;;;5113615;28;20201;-80
2021/12/15 06:03:07;;;;;;;417.00;43.50;;;7.10;99.90;;;;;;5113287;28;20216;-78
2021/12/15 06:05:35;;;;;;;410.80;40.37;;;7.10;99.90;;;;;;5113469;28;20217;-78
2021/12/15 06:08:06;;;;;;;429.87;39.23;;;7.10;99.90;;;;;;5113324;28;20189;-77
2021/12/15 06:10:35;;;;;;;448.90;40.87;;;7.10;99.90;;;;;;5113730;28;20201;-79
2021/12/15 06:13:04;;;;;;;435.30;38.80;;;7.10;99.90;;;;;;5113592;28;20683;-79
2021/12/15 06:15:32;;;;;;;466.43;39.37;;;7.10;99.90;;;;;;5113695;28;20199;-77
2021/12/15 06:18:02;;;;;;;412.23;36.97;;;7.10;99.90;;;;;;5113183;28;20665;-78
2021/12/15 06:20:33;;;;;;;411.93;35.37;;;7.10;99.90;;;;;;5113209;28;20193;-80
2021/12/15 06:23:08;;;;;;;404.87;36.53;;;7.10;99.90;;;;;;5113178;28;20254;-78
2021/12/15 06:25:38;;;;;;;401.67;33.77;;;7.10;99.90;;;;;;5113232;28;20187;-80
2021/12/15 06:28:07;;;;;;;403.83;37.07;;;7.10;99.90;;;;;;5113217;28;20192;-77
2021/12/15 06:30:36;;;;;;;394.97;36.63;;;7.10;99.90;;;;;;5113156;28;20207;-76
2021/12/15 06:33:04;;;;;;;384.73;35.70;;;7.10;99.90;;;;;;5113278;28;20201;-80
2021/12/15 06:35:34;;;;;;;457.57;43.87;;;7.10;99.90;;;;;;5113307;28;20194;-78
2021/12/15 06:38:01;;;;;;;413.03;38.43;;;7.10;99.90;;;;;;5112778;28;20187;-79
2021/12/15 06:40:28;;;;;;;413.73;37.63;;;7.10;99.90;;;;;;5113205;28;20209;-79
2021/12/15 06:42:57;;;;;;;441.37;38.43;;;7.10;99.90;;;;;;5112856;28;20669;-77
2021/12/15 06:45:36;;;;;;;420.07;36.73;;;7.10;99.90;;;;;;5112481;28;20193;-79
2021/12/15 06:59:14;;;;;;;379.87;31.17;;;7.20;99.90;;;;;;5116886;28;20185;-80
2021/12/15 07:01:48;;;;;;;337.73;31.70;;;7.20;99.90;;;;;;5116940;28;20190;-78
2021/12/15 07:04:15;;;;;;;307.93;31.13;;;7.20;99.90;;;;;;5116844;28;20208;-79
2021/12/15 07:06:42;;;;;;;289.03;30.67;;;7.20;99.90;;;;;;5116925;28;20216;-79
2021/12/15 07:09:10;;;;;;;220.70;27.60;;;7.20;99.90;;;;;;5116641;28;20205;-78
2021/12/15 07:11:38;;;;;;;229.50;26.73;;;7.30;99.90;;;;;;5127182;27;20193;-79
2021/12/15 07:14:05;;;;;;;199.53;25.23;;;7.30;99.90;;;;;;5137153;27;20205;-80
2021/12/15 07:16:41;;;;;;;197.83;27.50;;;7.30;99.90;;;;;;5137521;27;20200;-79
2021/12/15 07:19:21;;;;;;;151.93;25.87;;;7.30;99.90;;;;;;5137060;27;20257;-80
2021/12/15 07:22:08;;;;;;;160.30;24.17;;;7.30;99.90;;;;;;5136737;27;20186;-79
2021/12/15 07:24:38;;;;;;;175.67;27.23;;;7.30;99.90;;;;;;5127808;27;20265;-81
2021/12/15 07:27:10;;;;;;;163.77;26.67;;;7.30;99.90;;;;;;5116612;28;20586;-77
2021/12/15 07:29:40;;;;;;;142.37;26.40;;;7.40;99.90;;;;;;5116117;28;20230;-75
2021/12/15 07:32:13;;;;;;;151.53;28.83;;;7.40;99.90;;;;;;5115897;28;20187;-78
2021/12/15 07:34:42;;;;;;;139.93;27.20;;;7.40;99.90;;;;;;5118019;28;20183;-78
2021/12/15 07:37:10;;;;;;;148.33;27.20;;;7.40;99.90;;;;;;5115646;28;20265;-78
2021/12/15 07:39:54;;;;;;;138.77;26.43;;;7.40;99.90;;;;;;5117390;27;20190;-76
2021/12/15 07:42:31;;;;;;;159.83;28.00;;;7.40;99.90;;;;;;5132166;27;20622;-75
2021/12/15 07:44:59;;;;;;;149.00;29.20;;;7.50;99.90;;;;;;5118047;28;20662;-78
2021/12/15 07:47:27;;;;;;;146.83;28.30;;;7.50;99.90;;;;;;5115785;28;20206;-77
2021/12/15 07:49:59;;;;;;;136.37;29.03;;;7.50;99.90;;;;;;5121368;27;20593;-78
2021/12/15 07:52:27;;;;;;;155.80;32.57;;;7.50;99.90;;;;;;5121209;27;20179;-78
2021/12/15 07:54:54;;;;;;;148.30;30.77;;;7.50;99.90;;;;;;5128254;27;20193;-75
2021/12/15 07:57:22;;;;;;;149.03;29.03;;;7.60;99.90;;;;;;5137231;27;20246;-76
2021/12/15 07:59:50;;;;;;;159.43;30.57;;;7.60;99.90;;;;;;5125770;27;20221;-76
2021/12/15 08:02:18;;;;;;;146.43;29.20;;;7.60;99.90;;;;;;5135458;27;20209;-79
2021/12/15 08:04:46;;;;;;;148.07;30.83;;;7.70;99.90;;;;;;5135868;27;20265;-77
2021/12/15 08:07:15;;;;;;;151.73;29.83;;;7.70;99.90;;;;;;5130764;27;20240;-77
2021/12/15 08:09:42;;;;;;;157.50;30.57;;;7.70;99.90;;;;;;5117259;28;20193;-75
2021/12/15 08:12:10;;;;;;;145.23;29.93;;;7.80;99.90;;;;;;5116597;28;20195;-75
2021/12/15 08:14:39;;;;;;;144.63;30.10;;;7.80;99.90;;;;;;5117400;28;20679;-78
2021/12/15 08:17:08;;;;;;;134.87;30.93;;;7.90;99.90;;;;;;5116772;28;20273;-79
2021/12/15 08:19:36;;;;;;;139.83;31.33;;;7.90;99.90;;;;;;5117824;27;20221;-80
2021/12/15 08:22:07;;;;;;;139.53;33.47;;;7.90;99.90;;;;;;5119420;27;20184;-75
2021/12/15 08:24:38;;;;;;;152.27;33.27;;;7.90;99.90;;;;;;5122592;27;20241;-77
2021/12/15 08:27:05;;;;;;;156.97;32.43;;;7.90;99.90;;;;;;5137504;27;20189;-76
2021/12/15 08:29:32;;;;;;;143.90;31.27;;;7.90;99.90;;;;;;5127073;27;20593;-76
2021/12/15 08:31:59;;;;;;;147.67;31.27;;;7.90;99.90;;;;;;5115210;28;20195;-78
2021/12/15 08:34:30;;;;;;;158.73;32.77;;;7.90;99.90;;;;;;5114735;28;20286;-75
2021/12/15 08:36:57;;;;;;;149.20;33.67;;;7.90;99.90;;;;;;5117579;28;20513;-79
2021/12/15 08:39:25;;;;;;;161.23;37.23;;;7.90;99.90;;;;;;5126351;27;20186;-77
2021/12/15 08:41:53;;;;;;;149.53;32.37;;;7.90;99.90;;;;;;5124449;28;20183;-80
2021/12/15 08:44:26;;;;;;;149.90;34.33;;;7.90;99.90;;;;;;5127885;28;20194;-77
2021/12/15 08:46:59;;;;;;;147.07;35.30;;;8.00;99.90;;;;;;5133153;28;20182;-79
2021/12/15 08:49:28;;;;;;;139.90;32.37;;;7.90;99.90;;;;;;5117755;28;20207;-77
2021/12/15 08:51:55;;;;;;;138.37;32.43;;;8.00;99.90;;;;;;5121825;28;20285;-78
2021/12/15 08:54:24;;;;;;;143.53;34.23;;;7.90;99.90;;;;;;5118785;28;20647;-77
2021/12/15 08:56:53;;;;;;;134.67;31.87;;;8.00;99.90;;;;;;5125309;28;20191;-80
2021/12/15 08:59:21;;;;;;;131.80;32.80;;;8.00;99.90;;;;;;5120645;27;20190;-79
2021/12/15 09:01:50;;;;;;;121.63;29.93;;;8.00;99.90;;;;;;5121736;27;20185;-78
2021/12/15 09:04:17;;;;;;;115.57;30.43;;;8.00;99.90;;;;;;5120524;27;20645;-78
2021/12/15 09:06:47;;;;;;;127.97;31.20;;;8.00;99.90;;;;;;5131115;27;20190;-77
2021/12/15 09:09:16;;;;;;;117.67;30.73;;;8.10;99.90;;;;;;5130225;27;20186;-78
2021/12/15 09:11:44;;;;;;;108.83;29.60;;;8.00;99.90;;;;;;5133667;27;20252;-75
2021/12/15 09:14:15;;;;;;;120.77;31.50;;;8.10;99.90;;;;;;5135426;27;20273;-78
2021/12/15 09:16:59;;;;;;;110.27;28.43;;;8.10;99.90;;;;;;5135918;27;20643;-79
2021/12/15 09:19:26;;;;;;;118.10;35.67;;;8.20;99.90;;;;;;5115364;28;20184;-77
2021/12/15 09:21:57;;;;;;;107.70;29.47;;;8.20;99.90;;;;;;5113745;27;20190;-77
2021/12/15 09:24:25;;;;;;;102.93;28.60;;;8.20;99.90;;;;;;5131682;27;20223;-77
2021/12/15 09:26:53;;;;;;;110.83;32.40;;;8.20;99.90;;;;;;5123693;28;20191;-77
2021/12/15 09:29:22;;;;;;;93.10;28.63;;;8.20;99.90;;;;;;5114201;28;20226;-77
2021/12/15 09:31:50;;;;;;;99.50;31.07;;;8.20;99.90;;;;;;5124844;28;20190;-77
2021/12/15 09:34:20;;;;;;;111.37;34.37;;;8.20;99.90;;;;;;5114185;27;20214;-79
2021/12/15 09:36:49;;;;;;;108.13;31.47;;;8.20;99.90;;;;;;5113693;28;20241;-78
2021/12/15 09:39:21;;;;;;;108.00;31.67;;;8.20;99.90;;;;;;5114478;28;20255;-79
2021/12/15 09:41:51;;;;;;;96.37;33.10;;;8.30;99.90;;;;;;5113717;28;20179;-80
2021/12/15 09:44:23;;;;;;;100.07;30.83;;;8.30;99.90;;;;;;5113452;28;20593;-77
2021/12/15 10:03:47;;;;;;;83.10;27.57;;;8.50;99.90;;;;;;5124435;27;20201;-76
2021/12/15 10:06:32;;;;;;;86.93;26.97;;;8.40;99.90;;;;;;5119677;27;20188;-78
2021/12/15 10:11:54;;;;;;;103.60;35.90;;;8.50;99.90;;;;;;5111274;27;20178;-78
2021/12/15 10:17:42;;;;;;;83.17;28.63;;;8.40;99.90;;;;;;5108688;28;20186;-78
2021/12/15 10:20:22;;;;;;;84.23;28.67;;;8.50;99.90;;;;;;5109241;28;20680;-78
2021/12/15 10:22:59;;;;;;;77.13;28.47;;;8.40;99.90;;;;;;5109244;28;20175;-78
2021/12/15 10:25:32;;;;;;;93.07;32.73;;;8.50;99.90;;;;;;5108617;28;20178;-78
2021/12/15 10:28:07;;;;;;;82.43;31.13;;;8.50;99.90;;;;;;5111274;28;20183;-79
2021/12/15 10:30:38;;;;;;;80.20;28.77;;;8.50;99.90;;;;;;5109908;28;20179;-77
2021/12/15 10:33:11;;;;;;;92.30;35.00;;;8.50;99.90;;;;;;5111087;28;20183;-78
2021/12/15 10:35:46;;;;;;;112.00;42.70;;;8.60;99.90;;;;;;5111373;28;20185;-78
2021/12/15 10:38:19;;;;;;;102.10;37.80;;;8.60;99.90;;;;;;5112995;28;20205;-79
2021/12/15 10:40:53;;;;;;;87.87;35.57;;;8.60;99.90;;;;;;5113210;28;20182;-78
2021/12/15 10:43:21;;;;;;;101.17;36.33;;;8.60;99.90;;;;;;5112281;28;20225;-79
2021/12/15 10:45:54;;;;;;;62.63;24.93;;;8.70;99.90;;;;;;5112981;28;20195;-77
2021/12/15 10:48:36;;;;;;;67.33;24.47;;;8.70;99.90;;;;;;5112451;28;20211;-78
2021/12/15 10:51:32;;;;;;;63.70;25.73;;;8.70;99.90;;;;;;5112470;28;20592;-78
2021/12/15 10:54:04;;;;;;;65.60;27.43;;;8.80;99.90;;;;;;5112628;28;20192;-78
2021/12/15 10:56:37;;;;;;;57.87;24.10;;;8.80;99.90;;;;;;5111547;28;20193;-78
2021/12/15 10:59:08;;;;;;;63.23;26.83;;;8.70;99.90;;;;;;5116943;28;20187;-78
2021/12/15 11:02:08;;;;;;;74.43;32.53;;;8.80;99.90;;;;;;5125340;28;20184;-78
2021/12/15 11:04:44;;;;;;;57.23;25.27;;;8.80;99.90;;;;;;5123786;28;20203;-76
2021/12/15 11:07:37;;;;;;;58.07;24.43;;;8.80;99.90;;;;;;5123861;28;20179;-79
2021/12/15 11:10:17;;;;;;;55.63;23.40;;;8.80;99.90;;;;;;5122926;28;20192;-79
2021/12/15 11:12:50;;;;;;;51.07;22.83;;;8.70;99.90;;;;;;5122017;28;20192;-77
2021/12/15 11:15:23;;;;;;;57.50;25.27;;;8.70;99.90;;;;;;5133525;28;20185;-79
2021/12/15 11:17:57;;;;;;;58.47;24.80;;;8.70;99.90;;;;;;5113112;28;20257;-75
2021/12/15 11:20:30;;;;;;;52.80;23.70;;;8.70;99.90;;;;;;5114724;28;20225;-77
2021/12/15 11:23:03;;;;;;;55.77;22.80;;;8.70;99.90;;;;;;5113645;28;20180;-75
2021/12/15 11:25:39;;;;;;;64.57;29.67;;;8.70;99.90;;;;;;5112192;28;20211;-78
2021/12/15 11:28:12;;;;;;;82.10;37.10;;;8.70;99.90;;;;;;5113976;28;20179;-80
2021/12/15 11:30:55;;;;;;;62.07;28.63;;;8.70;99.90;;;;;;5113546;28;20646;-78
2021/12/15 11:33:27;;;;;;;63.30;28.60;;;8.70;99.90;;;;;;5111698;28;20245;-77
2021/12/15 11:35:59;;;;;;;61.80;25.80;;;8.70;99.90;;;;;;5112223;28;20649;-75
2021/12/15 11:38:30;;;;;;;83.77;38.53;;;8.70;99.90;;;;;;5115140;27;20184;-75
2021/12/15 11:41:10;;;;;;;59.73;24.57;;;8.70;99.90;;;;;;5117558;28;20185;-79
2021/12/15 11:43:45;;;;;;;65.20;29.23;;;8.70;99.90;;;;;;5116035;28;20322;-75
2021/12/15 11:46:28;;;;;;;55.00;24.37;;;8.70;99.90;;;;;;5117241;28;20535;-77
2021/12/15 11:48:58;;;;;;;59.13;24.43;;;8.80;99.90;;;;;;5118772;27;20718;-78
2021/12/15 11:51:40;;;;;;;57.93;24.47;;;8.80;99.90;;;;;;5122423;27;20611;-78
2021/12/15 11:54:19;;;;;;;61.00;25.63;;;8.80;99.90;;;;;;5122916;27;20578;-78
2021/12/15 11:56:50;;;;;;;62.37;25.43;;;8.80;99.90;;;;;;5123257;27;20248;-76
2021/12/15 11:59:22;;;;;;;59.17;25.47;;;8.90;99.90;;;;;;5122530;27;20180;-77
2021/12/15 12:01:59;;;;;;;55.57;24.77;;;8.90;99.90;;;;;;5116545;28;20189;-77
2021/12/15 12:04:39;;;;;;;52.90;22.03;;;8.90;99.90;;;;;;5123555;27;20178;-77
2021/12/15 12:07:30;;;;;;;49.00;21.60;;;8.90;99.90;;;;;;5125935;27;20659;-78
2021/12/15 12:10:09;;;;;;;50.37;21.93;;;8.90;99.90;;;;;;5120700;27;20187;-78
2021/12/15 12:12:51;;;;;;;49.10;20.50;;;9.00;99.90;;;;;;5124972;27;20186;-78
2021/12/15 12:15:23;;;;;;;53.47;21.30;;;8.90;99.90;;;;;;5123124;27;20702;-78
2021/12/15 12:17:54;;;;;;;51.13;21.40;;;8.90;99.90;;;;;;5121875;27;20627;-75
2021/12/15 12:20:23;;;;;;;51.33;23.33;;;8.90;99.90;;;;;;5125838;27;20233;-76
2021/12/15 12:22:51;;;;;;;51.00;22.00;;;8.90;99.90;;;;;;5127386;27;20222;-77
2021/12/15 12:25:23;;;;;;;57.60;25.50;;;8.90;99.90;;;;;;5125100;27;20208;-78
2021/12/15 12:27:59;;;;;;;53.23;24.63;;;9.00;99.90;;;;;;5129622;27;20266;-79
2021/12/15 12:30:29;;;;;;;56.87;23.73;;;9.00;99.90;;;;;;5124088;27;20176;-80
2021/12/15 12:32:58;;;;;;;54.53;25.93;;;9.00;99.90;;;;;;5118217;27;20184;-78
2021/12/15 12:35:32;;;;;;;57.20;25.93;;;9.00;99.90;;;;;;5120922;27;20232;-79
2021/12/15 12:38:03;;;;;;;54.43;23.60;;;9.10;99.90;;;;;;5120833;27;20271;-78
2021/12/15 12:40:36;;;;;;;56.10;24.67;;;9.00;99.90;;;;;;5128012;27;20190;-78
2021/12/15 12:43:21;;;;;;;58.20;23.97;;;9.10;99.90;;;;;;5136516;27;20246;-80
2021/12/15 12:46:03;;;;;;;50.20;22.70;;;9.10;99.90;;;;;;5128390;27;20622;-79
2021/12/15 13:00:21;;;;;;;52.00;24.93;;;9.00;99.90;;;;;;5114765;28;20175;-78
2021/12/15 13:02:51;;;;;;;51.47;23.90;;;9.00;99.90;;;;;;5115022;28;20189;-79
2021/12/15 13:05:38;;;;;;;52.13;23.73;;;9.00;99.90;;;;;;5119272;27;20206;-78
2021/12/15 13:08:09;;;;;;;50.30;22.47;;;9.00;99.90;;;;;;5136374;27;20528;-77
2021/12/15 13:10:56;;;;;;;57.03;24.20;;;8.90;99.90;;;;;;5134617;27;20195;-78
2021/12/15 13:13:28;;;;;;;108.87;40.93;;;9.00;99.90;;;;;;5134145;27;20195;-80
2021/12/15 13:16:04;;;;;;;86.57;36.17;;;9.00;99.90;;;;;;5128550;27;20244;-76
2021/12/15 13:18:45;;;;;;;79.13;40.87;;;8.90;99.90;;;;;;5113755;28;20188;-78
2021/12/15 13:21:17;;;;;;;52.60;26.23;;;8.90;99.90;;;;;;5115554;28;20249;-79
2021/12/15 13:23:49;;;;;;;51.27;26.00;;;8.90;99.90;;;;;;5114109;28;20236;-78
2021/12/15 13:29:50;;;;;;;64.47;31.53;;;8.90;99.90;;;;;;5115925;28;20178;-76
2021/12/15 13:32:18;;;;;;;55.43;25.47;;;8.90;99.90;;;;;;5114048;28;20187;-78
2021/12/15 13:34:47;;;;;;;58.73;28.50;;;8.90;99.90;;;;;;5113559;28;20195;-77
2021/12/15 13:37:43;;;;;;;66.57;35.93;;;8.90;99.90;;;;;;5114306;28;20601;-78
2021/12/15 13:40:11;;;;;;;47.20;22.73;;;8.90;99.90;;;;;;5111052;28;20624;-78
2021/12/15 13:42:52;;;;;;;41.63;20.37;;;8.80;99.90;;;;;;5113447;28;20220;-76
2021/12/15 13:45:29;;;;;;;53.90;27.17;;;8.90;99.90;;;;;;5113053;28;20207;-76
2021/12/15 13:47:58;;;;;;;50.53;26.10;;;8.90;99.90;;;;;;5113011;28;20182;-76
2021/12/15 13:50:29;;;;;;;53.47;25.07;;;8.90;99.90;;;;;;5112865;28;20561;-75
2021/12/15 13:52:58;;;;;;;49.83;24.30;;;8.90;99.90;;;;;;5113312;28;20210;-76
2021/12/15 13:55:29;;;;;;;47.67;23.57;;;9.00;99.90;;;;;;5112813;28;20205;-78
2021/12/15 13:58:23;;;;;;;46.60;23.90;;;9.00;99.90;;;;;;5112695;28;20222;-76
2021/12/15 14:01:04;;;;;;;54.20;26.03;;;9.10;99.90;;;;;;5109806;27;20656;-79
2021/12/15 14:03:39;;;;;;;57.20;27.70;;;9.10;99.90;;;;;;5128528;27;20181;-78
2021/12/15 14:06:12;;;;;;;69.23;31.23;;;9.10;99.90;;;;;;5123779;27;20257;-76
2021/12/15 14:08:42;;;;;;;82.37;35.63;;;9.10;99.90;;;;;;5120067;27;20579;-77